Capitol Logistics 2576


KMEM
Memphis International Airport
Memphis, Tennessee, US
KIAD
Washington Dulles International Airport
Dulles, Virginia, US

Activity Log

Date Flight Route Aircraft Duration
12/07/2019 CPX2576 GOETZ6 DIYAB BNA J42 BKW GIBBZ3 B763 1h 48m

Route Details

Aircraft Information
Primary: Boeing 767-300BDSF
Backup: Boeing 757-200SF
Date Restrictions
Between:Nov 16, 2019
Dec 31, 2019
Route Data
Distance: 644nm
Sched. Duration: 1h 33m
Avg. Duration: 1h 48m (+15m)
Times Flown: 1
Recm'd Route: GOETZ6 DIYAB BNA J42 BKW GIBBZ3
Planned Altitude: 37,000ft
Origin Wx: KMEM 271654Z 04008KT 5SM -PL BR SCT015 BKN044 OVC055 03/01 A3020 RMK AO2 RAB08E49PLB48 SLP229 P0001 T00330006 $
Dest. Wx: KIAD 271652Z 34014KT 10SM SCT038 BKN045 BKN110 06/M03 A3011 RMK AO2 PRESFR SLP199 T00611028
Notes: OPERATED FOR FEDEX

Financial History
Total Freight: 53,744lbs
Average Load: 53,744lbs/flt
Fuel Used: 17,105lbs
Avg. Fuel Used: 17,105lbs/flt
Fuel Expense: $17,960
Avg. Fuel Expense: $17,960
Avg. Fuel Cost: $1.05/lbs
Total Gross Income: $81,153
Pilot Pay: $229
Total Expenses: $8,817
Total Revenue: $53,874
Average Revenue: $81,153.44